KENL/ENL METAR and TAF weather

Enter ICAO airport designator
Station Type Date Time Source
KENL METAR 2021/03/05 01:35 UTC NOAA

KENL 050135Z AUTO 00000KT 10SM CLR 09/02 A3023 RMK AO2 T00880016


Station Type Date Time Source
KENL Decoded METAR 2021/03/05 01:35 UTC NOAA

Centralia, Centralia Municipal Airport, IL, United States (KENL) 38-30-53N 089-05-32W
Mar 04, 2021 - 08:35 PM EST / 2021.03.05 0135 UTC
Wind: Calm:0
Visibility: 10 mile(s):0
Sky conditions: clear
Temperature: 47.8 F (8.8 C)
Dew Point: 34.9 F (1.6 C)
Relative Humidity: 60%
Pressure (altimeter): 30.23 in. Hg (1023 hPa)
ob: KENL 050135Z AUTO 00000KT 10SM CLR 09/02 A3023 RMK AO2 T00880016
cycle: 1

Station Type Date Time Source
KENL TAF UTC NOAA

Error!

Example: see airport list